sensor_id;sensor_type;location;lat;lon;timestamp;temperature;humidity
14993;DHT22;7592;51.088;13.732;2024-01-27T00:01:14;5.50;99.90
14993;DHT22;7592;51.088;13.732;2024-01-27T00:06:06;5.40;99.90
14993;DHT22;7592;51.088;13.732;2024-01-27T00:10:58;5.30;99.90
14993;DHT22;7592;51.088;13.732;2024-01-27T00:15:50;5.20;99.90
14993;DHT22;7592;51.088;13.732;2024-01-27T00:20:43;5.10;99.90
14993;DHT22;7592;51.088;13.732;2024-01-27T00:25:36;5.00;99.90
14993;DHT22;7592;51.088;13.732;2024-01-27T00:30:29;5.10;99.90
14993;DHT22;7592;51.088;13.732;2024-01-27T00:35:21;5.20;99.90
14993;DHT22;7592;51.088;13.732;2024-01-27T00:40:13;5.40;99.90
14993;DHT22;7592;51.088;13.732;2024-01-27T00:45:06;5.20;99.90
14993;DHT22;7592;51.088;13.732;2024-01-27T00:49:59;5.00;99.90
14993;DHT22;7592;51.088;13.732;2024-01-27T00:54:51;5.20;99.90
14993;DHT22;7592;51.088;13.732;2024-01-27T00:59:43;5.20;99.90
14993;DHT22;7592;51.088;13.732;2024-01-27T01:04:35;5.10;99.90
14993;DHT22;7592;51.088;13.732;2024-01-27T01:09:27;5.10;99.90
14993;DHT22;7592;51.088;13.732;2024-01-27T01:14:20;5.00;99.90
14993;DHT22;7592;51.088;13.732;2024-01-27T01:19:12;5.10;99.90
14993;DHT22;7592;51.088;13.732;2024-01-27T01:24:04;5.10;99.90
14993;DHT22;7592;51.088;13.732;2024-01-27T01:28:56;5.00;99.90
14993;DHT22;7592;51.088;13.732;2024-01-27T01:33:50;4.90;99.90
14993;DHT22;7592;51.088;13.732;2024-01-27T01:38:42;4.70;99.90
14993;DHT22;7592;51.088;13.732;2024-01-27T01:43:34;4.60;99.90
14993;DHT22;7592;51.088;13.732;2024-01-27T01:48:27;4.70;99.90
14993;DHT22;7592;51.088;13.732;2024-01-27T01:53:19;4.80;99.90
14993;DHT22;7592;51.088;13.732;2024-01-27T01:58:11;4.70;99.90
14993;DHT22;7592;51.088;13.732;2024-01-27T02:03:03;4.70;99.90
14993;DHT22;7592;51.088;13.732;2024-01-27T02:07:56;4.60;99.90
14993;DHT22;7592;51.088;13.732;2024-01-27T02:12:52;4.60;99.90
14993;DHT22;7592;51.088;13.732;2024-01-27T02:17:44;4.80;99.90
14993;DHT22;7592;51.088;13.732;2024-01-27T02:22:36;4.90;99.90
14993;DHT22;7592;51.088;13.732;2024-01-27T02:27:30;4.80;99.90
14993;DHT22;7592;51.088;13.732;2024-01-27T02:32:22;4.60;99.90
14993;DHT22;7592;51.088;13.732;2024-01-27T02:37:14;4.60;99.90
14993;DHT22;7592;51.088;13.732;2024-01-27T02:42:06;4.60;99.90
14993;DHT22;7592;51.088;13.732;2024-01-27T02:46:58;4.60;99.90
14993;DHT22;7592;51.088;13.732;2024-01-27T02:51:51;4.50;99.90
14993;DHT22;7592;51.088;13.732;2024-01-27T02:56:43;4.50;99.90
14993;DHT22;7592;51.088;13.732;2024-01-27T03:01:35;4.40;99.90
14993;DHT22;7592;51.088;13.732;2024-01-27T03:06:27;4.40;99.90
14993;DHT22;7592;51.088;13.732;2024-01-27T03:11:19;4.30;99.90
14993;DHT22;7592;51.088;13.732;2024-01-27T03:16:11;4.40;99.90
14993;DHT22;7592;51.088;13.732;2024-01-27T03:21:05;4.40;99.90
14993;DHT22;7592;51.088;13.732;2024-01-27T03:25:57;4.50;99.90
14993;DHT22;7592;51.088;13.732;2024-01-27T03:30:50;4.60;99.90
14993;DHT22;7592;51.088;13.732;2024-01-27T03:35:42;4.70;99.90
14993;DHT22;7592;51.088;13.732;2024-01-27T03:40:34;4.80;99.90
14993;DHT22;7592;51.088;13.732;2024-01-27T03:45:26;4.90;99.90
14993;DHT22;7592;51.088;13.732;2024-01-27T03:50:18;4.80;99.90
14993;DHT22;7592;51.088;13.732;2024-01-27T03:55:10;4.90;99.90
14993;DHT22;7592;51.088;13.732;2024-01-27T04:00:03;4.80;99.90
14993;DHT22;7592;51.088;13.732;2024-01-27T04:04:57;4.70;99.90
14993;DHT22;7592;51.088;13.732;2024-01-27T04:09:49;4.70;99.90
14993;DHT22;7592;51.088;13.732;2024-01-27T04:14:41;4.60;99.90
14993;DHT22;7592;51.088;13.732;2024-01-27T04:19:33;4.70;99.90
14993;DHT22;7592;51.088;13.732;2024-01-27T04:24:25;4.90;99.90
14993;DHT22;7592;51.088;13.732;2024-01-27T04:29:18;4.90;99.90
14993;DHT22;7592;51.088;13.732;2024-01-27T04:34:10;4.90;99.90
14993;DHT22;7592;51.088;13.732;2024-01-27T04:39:03;4.90;99.90
14993;DHT22;7592;51.088;13.732;2024-01-27T04:43:56;4.80;99.90
14993;DHT22;7592;51.088;13.732;2024-01-27T04:48:48;4.60;99.90
14993;DHT22;7592;51.088;13.732;2024-01-27T04:53:41;4.50;99.90
14993;DHT22;7592;51.088;13.732;2024-01-27T04:58:34;4.30;99.90
14993;DHT22;7592;51.088;13.732;2024-01-27T05:03:26;4.20;99.90
14993;DHT22;7592;51.088;13.732;2024-01-27T05:08:18;4.10;99.90
14993;DHT22;7592;51.088;13.732;2024-01-27T05:13:11;4.10;99.90
14993;DHT22;7592;51.088;13.732;2024-01-27T05:18:04;4.30;99.90
14993;DHT22;7592;51.088;13.732;2024-01-27T05:22:56;4.30;99.90
14993;DHT22;7592;51.088;13.732;2024-01-27T05:27:48;4.50;99.90
14993;DHT22;7592;51.088;13.732;2024-01-27T05:32:40;4.70;99.90
14993;DHT22;7592;51.088;13.732;2024-01-27T05:37:33;4.90;99.90
14993;DHT22;7592;51.088;13.732;2024-01-27T05:42:25;4.90;99.90
14993;DHT22;7592;51.088;13.732;2024-01-27T05:47:17;5.00;99.90
14993;DHT22;7592;51.088;13.732;2024-01-27T05:52:11;5.00;99.90
14993;DHT22;7592;51.088;13.732;2024-01-27T05:57:16;5.00;99.90
14993;DHT22;7592;51.088;13.732;2024-01-27T06:02:08;5.00;99.90
14993;DHT22;7592;51.088;13.732;2024-01-27T06:07:00;5.00;99.90
14993;DHT22;7592;51.088;13.732;2024-01-27T06:11:52;5.00;99.90
14993;DHT22;7592;51.088;13.732;2024-01-27T06:16:44;5.10;99.90
14993;DHT22;7592;51.088;13.732;2024-01-27T06:21:36;5.00;99.90
14993;DHT22;7592;51.088;13.732;2024-01-27T06:26:29;5.10;99.90
14993;DHT22;7592;51.088;13.732;2024-01-27T06:31:21;5.20;99.90
14993;DHT22;7592;51.088;13.732;2024-01-27T06:36:13;5.20;99.90
14993;DHT22;7592;51.088;13.732;2024-01-27T06:41:05;5.20;99.90
14993;DHT22;7592;51.088;13.732;2024-01-27T06:46:00;5.20;99.90
14993;DHT22;7592;51.088;13.732;2024-01-27T06:50:52;5.20;99.90
14993;DHT22;7592;51.088;13.732;2024-01-27T06:55:44;5.20;99.90
14993;DHT22;7592;51.088;13.732;2024-01-27T07:00:36;5.20;99.90
14993;DHT22;7592;51.088;13.732;2024-01-27T07:05:29;5.20;99.90
14993;DHT22;7592;51.088;13.732;2024-01-27T07:10:24;5.20;99.90
14993;DHT22;7592;51.088;13.732;2024-01-27T07:15:17;5.30;99.90
14993;DHT22;7592;51.088;13.732;2024-01-27T07:20:10;5.30;99.90
14993;DHT22;7592;51.088;13.732;2024-01-27T07:25:02;5.40;99.90
14993;DHT22;7592;51.088;13.732;2024-01-27T07:29:57;5.50;99.90
14993;DHT22;7592;51.088;13.732;2024-01-27T07:34:49;5.50;99.90
14993;DHT22;7592;51.088;13.732;2024-01-27T07:39:41;5.60;99.90
14993;DHT22;7592;51.088;13.732;2024-01-27T07:44:33;5.70;99.90
14993;DHT22;7592;51.088;13.732;2024-01-27T07:49:26;5.70;99.90
14993;DHT22;7592;51.088;13.732;2024-01-27T07:54:18;5.90;99.90
14993;DHT22;7592;51.088;13.732;2024-01-27T07:59:10;6.00;99.90
14993;DHT22;7592;51.088;13.732;2024-01-27T08:04:06;6.00;99.90
14993;DHT22;7592;51.088;13.732;2024-01-27T08:08:58;6.10;99.90
14993;DHT22;7592;51.088;13.732;2024-01-27T08:13:53;6.20;99.90
14993;DHT22;7592;51.088;13.732;2024-01-27T08:18:48;6.30;99.90
14993;DHT22;7592;51.088;13.732;2024-01-27T08:23:41;6.40;99.90
14993;DHT22;7592;51.088;13.732;2024-01-27T08:28:33;6.40;99.90
14993;DHT22;7592;51.088;13.732;2024-01-27T08:33:25;6.50;99.90
14993;DHT22;7592;51.088;13.732;2024-01-27T08:38:17;6.50;99.90
14993;DHT22;7592;51.088;13.732;2024-01-27T08:43:10;6.50;99.90
14993;DHT22;7592;51.088;13.732;2024-01-27T08:48:02;6.60;99.90
14993;DHT22;7592;51.088;13.732;2024-01-27T08:52:54;6.70;99.90
14993;DHT22;7592;51.088;13.732;2024-01-27T08:57:47;6.80;99.90
14993;DHT22;7592;51.088;13.732;2024-01-27T09:02:39;6.80;99.90
14993;DHT22;7592;51.088;13.732;2024-01-27T09:07:32;6.70;99.90
14993;DHT22;7592;51.088;13.732;2024-01-27T09:12:24;6.80;99.90
14993;DHT22;7592;51.088;13.732;2024-01-27T09:17:16;6.90;99.90
14993;DHT22;7592;51.088;13.732;2024-01-27T09:22:08;6.90;99.90
14993;DHT22;7592;51.088;13.732;2024-01-27T09:27:01;7.00;99.90
14993;DHT22;7592;51.088;13.732;2024-01-27T09:31:54;7.20;99.90
14993;DHT22;7592;51.088;13.732;2024-01-27T09:36:46;7.40;99.90
14993;DHT22;7592;51.088;13.732;2024-01-27T09:41:38;7.50;99.90
14993;DHT22;7592;51.088;13.732;2024-01-27T09:46:31;7.70;99.90
14993;DHT22;7592;51.088;13.732;2024-01-27T09:51:25;7.90;99.90
14993;DHT22;7592;51.088;13.732;2024-01-27T09:56:18;7.90;99.90
14993;DHT22;7592;51.088;13.732;2024-01-27T10:01:11;7.80;99.90
14993;DHT22;7592;51.088;13.732;2024-01-27T10:06:04;7.70;99.90
14993;DHT22;7592;51.088;13.732;2024-01-27T10:10:59;7.90;99.90
14993;DHT22;7592;51.088;13.732;2024-01-27T10:16:01;8.10;99.90
14993;DHT22;7592;51.088;13.732;2024-01-27T10:20:54;8.20;99.90
14993;DHT22;7592;51.088;13.732;2024-01-27T10:25:46;8.20;99.90
14993;DHT22;7592;51.088;13.732;2024-01-27T10:30:38;8.30;99.90
14993;DHT22;7592;51.088;13.732;2024-01-27T10:35:31;8.80;99.90
14993;DHT22;7592;51.088;13.732;2024-01-27T10:40:25;9.00;99.90
14993;DHT22;7592;51.088;13.732;2024-01-27T10:45:19;9.10;99.90
14993;DHT22;7592;51.088;13.732;2024-01-27T10:50:11;9.20;99.90
14993;DHT22;7592;51.088;13.732;2024-01-27T10:55:05;9.80;99.90
14993;DHT22;7592;51.088;13.732;2024-01-27T11:00:00;9.80;99.90
14993;DHT22;7592;51.088;13.732;2024-01-27T11:04:54;9.40;99.90
14993;DHT22;7592;51.088;13.732;2024-01-27T11:09:49;9.20;99.90
14993;DHT22;7592;51.088;13.732;2024-01-27T11:14:42;9.20;99.90
14993;DHT22;7592;51.088;13.732;2024-01-27T11:19:34;9.50;99.90
14993;DHT22;7592;51.088;13.732;2024-01-27T11:24:27;10.10;99.90
14993;DHT22;7592;51.088;13.732;2024-01-27T11:29:19;11.80;99.90
14993;DHT22;7592;51.088;13.732;2024-01-27T11:34:12;15.40;99.90
14993;DHT22;7592;51.088;13.732;2024-01-27T11:39:31;17.10;95.00
14993;DHT22;7592;51.088;13.732;2024-01-27T11:44:23;18.60;87.90
14993;DHT22;7592;51.088;13.732;2024-01-27T11:49:16;18.80;81.30
14993;DHT22;7592;51.088;13.732;2024-01-27T11:54:09;19.20;76.80
14993;DHT22;7592;51.088;13.732;2024-01-27T11:59:01;18.90;76.60
14993;DHT22;7592;51.088;13.732;2024-01-27T12:03:53;18.70;75.50
14993;DHT22;7592;51.088;13.732;2024-01-27T12:08:46;17.70;77.60
14993;DHT22;7592;51.088;13.732;2024-01-27T12:13:42;16.90;79.30
14993;DHT22;7592;51.088;13.732;2024-01-27T12:18:34;15.20;83.60
14993;DHT22;7592;51.088;13.732;2024-01-27T12:23:27;13.70;90.10
14993;DHT22;7592;51.088;13.732;2024-01-27T12:28:19;12.30;93.50
14993;DHT22;7592;51.088;13.732;2024-01-27T12:33:12;11.20;96.90
14993;DHT22;7592;51.088;13.732;2024-01-27T12:38:08;10.50;99.90
14993;DHT22;7592;51.088;13.732;2024-01-27T12:43:01;10.40;99.90
14993;DHT22;7592;51.088;13.732;2024-01-27T12:47:53;10.10;99.90
14993;DHT22;7592;51.088;13.732;2024-01-27T12:52:46;9.90;99.90
14993;DHT22;7592;51.088;13.732;2024-01-27T12:57:38;9.70;99.90
14993;DHT22;7592;51.088;13.732;2024-01-27T13:02:31;9.60;99.90
14993;DHT22;7592;51.088;13.732;2024-01-27T13:07:24;9.50;99.90
14993;DHT22;7592;51.088;13.732;2024-01-27T13:12:16;9.50;99.90
14993;DHT22;7592;51.088;13.732;2024-01-27T13:17:08;9.50;99.90
14993;DHT22;7592;51.088;13.732;2024-01-27T13:22:00;9.40;99.90
14993;DHT22;7592;51.088;13.732;2024-01-27T13:26:52;9.30;99.90
14993;DHT22;7592;51.088;13.732;2024-01-27T13:31:45;9.30;99.90
14993;DHT22;7592;51.088;13.732;2024-01-27T13:36:37;9.20;99.90
14993;DHT22;7592;51.088;13.732;2024-01-27T13:41:29;9.10;99.90
14993;DHT22;7592;51.088;13.732;2024-01-27T13:46:22;9.00;99.90
14993;DHT22;7592;51.088;13.732;2024-01-27T13:51:17;8.90;99.90
14993;DHT22;7592;51.088;13.732;2024-01-27T13:56:09;8.80;99.90
14993;DHT22;7592;51.088;13.732;2024-01-27T14:01:01;8.80;99.90
14993;DHT22;7592;51.088;13.732;2024-01-27T14:05:54;8.80;99.90
14993;DHT22;7592;51.088;13.732;2024-01-27T14:10:46;8.80;99.90
14993;DHT22;7592;51.088;13.732;2024-01-27T14:15:42;8.70;99.90
14993;DHT22;7592;51.088;13.732;2024-01-27T14:20:34;8.50;99.90
14993;DHT22;7592;51.088;13.732;2024-01-27T14:25:29;8.40;99.90
14993;DHT22;7592;51.088;13.732;2024-01-27T14:30:21;8.30;99.90
14993;DHT22;7592;51.088;13.732;2024-01-27T14:35:15;8.20;99.90
14993;DHT22;7592;51.088;13.732;2024-01-27T14:40:07;8.10;99.90
14993;DHT22;7592;51.088;13.732;2024-01-27T14:45:00;8.10;99.90
14993;DHT22;7592;51.088;13.732;2024-01-27T14:49:53;7.90;99.90
14993;DHT22;7592;51.088;13.732;2024-01-27T14:54:45;7.80;99.90
14993;DHT22;7592;51.088;13.732;2024-01-27T14:59:38;7.70;99.90
14993;DHT22;7592;51.088;13.732;2024-01-27T15:04:31;7.60;99.90
14993;DHT22;7592;51.088;13.732;2024-01-27T15:09:24;7.50;99.90
14993;DHT22;7592;51.088;13.732;2024-01-27T15:14:16;7.40;99.90
14993;DHT22;7592;51.088;13.732;2024-01-27T15:19:09;7.30;99.90
14993;DHT22;7592;51.088;13.732;2024-01-27T15:24:02;7.20;99.90
14993;DHT22;7592;51.088;13.732;2024-01-27T15:28:54;7.10;99.90
14993;DHT22;7592;51.088;13.732;2024-01-27T15:33:46;6.90;99.90
14993;DHT22;7592;51.088;13.732;2024-01-27T15:38:41;6.60;99.90
14993;DHT22;7592;51.088;13.732;2024-01-27T15:43:34;6.40;99.90
14993;DHT22;7592;51.088;13.732;2024-01-27T15:48:26;6.20;99.90
14993;DHT22;7592;51.088;13.732;2024-01-27T15:53:20;6.10;99.90
14993;DHT22;7592;51.088;13.732;2024-01-27T15:58:12;5.90;99.90
14993;DHT22;7592;51.088;13.732;2024-01-27T16:03:04;5.80;99.90
14993;DHT22;7592;51.088;13.732;2024-01-27T16:07:56;5.60;99.90
14993;DHT22;7592;51.088;13.732;2024-01-27T16:12:48;5.50;99.90
14993;DHT22;7592;51.088;13.732;2024-01-27T16:17:41;5.40;99.90
14993;DHT22;7592;51.088;13.732;2024-01-27T16:22:33;5.40;99.90
14993;DHT22;7592;51.088;13.732;2024-01-27T16:27:25;5.50;99.90
14993;DHT22;7592;51.088;13.732;2024-01-27T16:32:22;5.40;99.90
14993;DHT22;7592;51.088;13.732;2024-01-27T16:37:14;5.20;99.90
14993;DHT22;7592;51.088;13.732;2024-01-27T16:42:07;5.00;99.90
14993;DHT22;7592;51.088;13.732;2024-01-27T16:46:59;5.00;99.90
14993;DHT22;7592;51.088;13.732;2024-01-27T16:51:51;4.90;99.90
14993;DHT22;7592;51.088;13.732;2024-01-27T16:56:43;4.80;99.90
14993;DHT22;7592;51.088;13.732;2024-01-27T17:01:35;4.70;99.90
14993;DHT22;7592;51.088;13.732;2024-01-27T17:06:28;4.60;99.90
14993;DHT22;7592;51.088;13.732;2024-01-27T17:11:23;4.70;99.90
14993;DHT22;7592;51.088;13.732;2024-01-27T17:16:15;4.60;99.90
14993;DHT22;7592;51.088;13.732;2024-01-27T17:21:08;4.40;99.90
14993;DHT22;7592;51.088;13.732;2024-01-27T17:26:00;4.30;99.90
14993;DHT22;7592;51.088;13.732;2024-01-27T17:30:53;4.20;99.90
14993;DHT22;7592;51.088;13.732;2024-01-27T17:35:45;4.20;99.90
14993;DHT22;7592;51.088;13.732;2024-01-27T17:40:37;4.10;99.90
14993;DHT22;7592;51.088;13.732;2024-01-27T17:45:29;4.00;99.90
14993;DHT22;7592;51.088;13.732;2024-01-27T17:50:21;3.90;99.90
14993;DHT22;7592;51.088;13.732;2024-01-27T17:55:14;3.80;99.90
14993;DHT22;7592;51.088;13.732;2024-01-27T18:00:07;3.80;99.90
14993;DHT22;7592;51.088;13.732;2024-01-27T18:05:03;3.70;99.90
14993;DHT22;7592;51.088;13.732;2024-01-27T18:09:55;3.70;99.90
14993;DHT22;7592;51.088;13.732;2024-01-27T18:14:47;3.70;99.90
14993;DHT22;7592;51.088;13.732;2024-01-27T18:19:39;3.70;99.90
14993;DHT22;7592;51.088;13.732;2024-01-27T18:24:31;3.80;99.90
14993;DHT22;7592;51.088;13.732;2024-01-27T18:29:23;3.70;99.90
14993;DHT22;7592;51.088;13.732;2024-01-27T18:34:15;3.70;99.90
14993;DHT22;7592;51.088;13.732;2024-01-27T18:39:10;3.60;99.90
14993;DHT22;7592;51.088;13.732;2024-01-27T18:44:07;3.50;99.90
14993;DHT22;7592;51.088;13.732;2024-01-27T18:48:59;3.40;99.90
14993;DHT22;7592;51.088;13.732;2024-01-27T18:53:51;3.30;99.90
14993;DHT22;7592;51.088;13.732;2024-01-27T18:58:43;3.20;99.90
14993;DHT22;7592;51.088;13.732;2024-01-27T19:03:35;3.10;99.90
14993;DHT22;7592;51.088;13.732;2024-01-27T19:08:28;3.10;99.90
14993;DHT22;7592;51.088;13.732;2024-01-27T19:13:20;3.10;99.90
14993;DHT22;7592;51.088;13.732;2024-01-27T19:18:12;3.00;99.90
14993;DHT22;7592;51.088;13.732;2024-01-27T19:23:04;2.90;99.90
14993;DHT22;7592;51.088;13.732;2024-01-27T19:27:58;2.80;99.90
14993;DHT22;7592;51.088;13.732;2024-01-27T19:32:53;2.70;99.90
14993;DHT22;7592;51.088;13.732;2024-01-27T19:37:45;2.70;99.90
14993;DHT22;7592;51.088;13.732;2024-01-27T19:42:37;2.70;99.90
14993;DHT22;7592;51.088;13.732;2024-01-27T19:47:29;2.70;99.90
14993;DHT22;7592;51.088;13.732;2024-01-27T19:52:23;2.60;99.90
14993;DHT22;7592;51.088;13.732;2024-01-27T19:57:15;2.70;99.90
14993;DHT22;7592;51.088;13.732;2024-01-27T20:02:07;2.60;99.90
14993;DHT22;7592;51.088;13.732;2024-01-27T20:07:01;2.40;99.90
14993;DHT22;7592;51.088;13.732;2024-01-27T20:11:54;2.40;99.90
14993;DHT22;7592;51.088;13.732;2024-01-27T20:16:46;2.30;99.90
14993;DHT22;7592;51.088;13.732;2024-01-27T20:21:39;2.30;99.90
14993;DHT22;7592;51.088;13.732;2024-01-27T20:26:32;2.20;99.90
14993;DHT22;7592;51.088;13.732;2024-01-27T20:31:24;2.10;99.90
14993;DHT22;7592;51.088;13.732;2024-01-27T20:36:16;2.00;99.90
14993;DHT22;7592;51.088;13.732;2024-01-27T20:41:08;2.00;99.90
14993;DHT22;7592;51.088;13.732;2024-01-27T20:46:00;1.90;99.90
14993;DHT22;7592;51.088;13.732;2024-01-27T20:50:55;1.90;99.90
14993;DHT22;7592;51.088;13.732;2024-01-27T20:55:47;1.90;99.90
14993;DHT22;7592;51.088;13.732;2024-01-27T21:00:43;1.90;99.90
14993;DHT22;7592;51.088;13.732;2024-01-27T21:05:35;1.80;99.90
14993;DHT22;7592;51.088;13.732;2024-01-27T21:10:27;1.80;99.90
14993;DHT22;7592;51.088;13.732;2024-01-27T21:15:20;1.70;99.90
14993;DHT22;7592;51.088;13.732;2024-01-27T21:20:12;1.60;99.90
14993;DHT22;7592;51.088;13.732;2024-01-27T21:25:06;1.50;99.90
14993;DHT22;7592;51.088;13.732;2024-01-27T21:29:58;1.50;99.90
14993;DHT22;7592;51.088;13.732;2024-01-27T21:34:51;1.40;99.90
14993;DHT22;7592;51.088;13.732;2024-01-27T21:39:43;1.40;99.90
14993;DHT22;7592;51.088;13.732;2024-01-27T21:44:35;1.30;99.90
14993;DHT22;7592;51.088;13.732;2024-01-27T21:49:27;1.30;99.90
14993;DHT22;7592;51.088;13.732;2024-01-27T21:54:20;1.20;99.90
14993;DHT22;7592;51.088;13.732;2024-01-27T21:59:12;1.20;99.90
14993;DHT22;7592;51.088;13.732;2024-01-27T22:04:05;1.10;99.90
14993;DHT22;7592;51.088;13.732;2024-01-27T22:08:57;1.10;99.90
14993;DHT22;7592;51.088;13.732;2024-01-27T22:13:50;1.00;99.90
14993;DHT22;7592;51.088;13.732;2024-01-27T22:18:42;1.10;99.90
14993;DHT22;7592;51.088;13.732;2024-01-27T22:23:36;1.10;99.90
14993;DHT22;7592;51.088;13.732;2024-01-27T22:28:29;1.00;99.90
14993;DHT22;7592;51.088;13.732;2024-01-27T22:33:22;0.90;99.90
14993;DHT22;7592;51.088;13.732;2024-01-27T22:38:15;1.00;99.90
14993;DHT22;7592;51.088;13.732;2024-01-27T22:43:07;0.90;99.90
14993;DHT22;7592;51.088;13.732;2024-01-27T22:48:00;0.80;99.90
14993;DHT22;7592;51.088;13.732;2024-01-27T22:52:54;0.70;99.90
14993;DHT22;7592;51.088;13.732;2024-01-27T22:57:46;0.70;99.90
14993;DHT22;7592;51.088;13.732;2024-01-27T23:02:38;0.60;99.90
14993;DHT22;7592;51.088;13.732;2024-01-27T23:07:31;0.70;99.90
14993;DHT22;7592;51.088;13.732;2024-01-27T23:12:23;0.70;99.90
14993;DHT22;7592;51.088;13.732;2024-01-27T23:17:15;0.60;99.90
14993;DHT22;7592;51.088;13.732;2024-01-27T23:22:08;0.50;99.90
14993;DHT22;7592;51.088;13.732;2024-01-27T23:27:00;0.40;99.90
14993;DHT22;7592;51.088;13.732;2024-01-27T23:31:52;0.30;99.90
14993;DHT22;7592;51.088;13.732;2024-01-27T23:36:45;0.30;99.90
14993;DHT22;7592;51.088;13.732;2024-01-27T23:41:37;0.20;99.90
14993;DHT22;7592;51.088;13.732;2024-01-27T23:46:30;0.20;99.90
14993;DHT22;7592;51.088;13.732;2024-01-27T23:51:22;0.10;99.90
14993;DHT22;7592;51.088;13.732;2024-01-27T23:56:15;0.20;99.90
